Hlavní strana
METAR-TAF:

METAR-TAF

Letiště :

Mo i Rana, Norsko

zeměpisná šířka: 66-22N, zeměpisná délka: 014-18E, výška: 7 m

Aktuální stav počasí

Zpráva byla vytvořena před 38 minutami, v 09:50 UTC
Jihojihovýchodní vítr 2 kt
Teplota -23°C
Vlhkost vzduchu 76%
Tlak 1009 hPa
Viditelnost 10 km a více
Žádná oblačnost pod 1500 m, nevyskytují se cumulonimby.

METAR: ENRA 220950Z 16002KT CAVOK M23/M26 Q1009

Čas: 11:28 (10:28 UTC)

Předpověď počasí

Zpráva byla vytvořena před 2 hodinami a 28 minutami, v 08:00 UTC
Předpověď platná od 22 v 09 UTC do 22 v 18 UTC
vítr z různých směrů 5 kt
Viditelnost 10 km a více
Žádná oblačnost pod 1500 m, nevyskytují se cumulonimby.

TAF: ENRA 220800Z 2209/2218 VRB05KT CAVOK

Stav a předpovědi počasí z více než 4 000 letišť (zprávy METAR a TAF).

Červené a žluté tečky na mapě představují dostupné meteorologické stanice.

Když kurzor umístíte na tečku, zobrazí se název stanice.

Pak kliknutím zobrazíte stav a předpověď počasí.

Chcete-li změnit mapu, kliknutím na zelené tlačítko se znaménkem +mapu přiblížíte, kliknutím na zelené tlačítko se znaménkem – mapu oddálíte a kliknutím na zelené šipky přejdete na sousední mapy.


METAR-TAF: